Time;durP1;ratioP1;P1;durP2;ratioP2;P2;SDS_P1;SDS_P2;PMS_P1;PMS_P2;Temp;Humidity;BMP_temperature;BMP_pressure;BME280_temperature;BME280_humidity;BME280_pressure;Samples;Min_cycle;Max_cycle;Signal;HPM_P1;HPM_P2
2022/02/25 00:01:33;;;;;;;43.78;28.62;;;;;;;2.49;100.00;100071.75;1708914;84;21090;-61
2022/02/25 00:04:02;;;;;;;42.90;28.98;;;;;;;2.48;100.00;100067.41;1708743;82;21079;-60
2022/02/25 00:06:30;;;;;;;43.85;30.55;;;;;;;2.53;100.00;100071.33;1708832;84;21028;-60
2022/02/25 00:08:58;;;;;;;42.13;28.75;;;;;;;2.51;100.00;100061.61;1708891;84;21075;-60
2022/02/25 00:11:24;;;;;;;43.45;28.70;;;;;;;2.43;100.00;100061.86;1711930;82;21574;-60
2022/02/25 00:13:51;;;;;;;42.75;28.25;;;;;;;2.43;100.00;100051.11;1710476;82;21052;-60
2022/02/25 00:16:19;;;;;;;37.55;28.02;;;;;;;2.49;100.00;100056.97;1709057;83;21110;-60
2022/02/25 00:18:48;;;;;;;38.65;29.15;;;;;;;2.49;100.00;100052.94;1708866;83;21099;-60
2022/02/25 00:21:16;;;;;;;39.67;27.55;;;;;;;2.43;100.00;100050.28;1709307;82;21091;-60
2022/02/25 00:23:44;;;;;;;40.23;28.73;;;;;;;2.43;100.00;100047.59;1708811;84;21557;-60
2022/02/25 00:26:12;;;;;;;38.48;27.40;;;;;;;2.48;100.00;100047.25;1711196;82;21546;-60
2022/02/25 00:28:41;;;;;;;40.60;28.12;;;;;;;2.50;100.00;100049.23;1738396;82;21629;-59
2022/02/25 00:31:09;;;;;;;37.75;28.12;;;;;;;2.47;100.00;100047.48;1738232;82;21059;-60
2022/02/25 00:33:38;;;;;;;38.73;28.85;;;;;;;2.45;100.00;100045.00;1721833;82;21667;-60
2022/02/25 00:36:06;;;;;;;43.73;30.30;;;;;;;2.49;100.00;100044.88;1709239;82;21562;-60
2022/02/25 00:38:34;;;;;;;43.70;30.95;;;;;;;2.51;100.00;100049.52;1708938;83;21449;-60
2022/02/25 00:41:02;;;;;;;41.15;29.90;;;;;;;2.46;100.00;100044.48;1710512;83;21023;-60
2022/02/25 00:43:31;;;;;;;42.83;30.25;;;;;;;2.44;100.00;100035.27;1749327;82;21020;-60
2022/02/25 00:45:58;;;;;;;39.83;29.02;;;;;;;2.48;100.00;100037.84;1739615;82;21072;-60
2022/02/25 00:48:27;;;;;;;41.05;29.60;;;;;;;2.53;100.00;100038.56;1722253;83;21077;-59
2022/02/25 00:50:55;;;;;;;43.02;29.85;;;;;;;2.51;100.00;100033.94;1733755;82;21082;-60
2022/02/25 00:53:23;;;;;;;40.98;29.63;;;;;;;2.48;100.00;100031.13;1752273;82;21063;-59
2022/02/25 00:55:50;;;;;;;37.33;28.45;;;;;;;2.56;100.00;100034.62;1750376;82;21002;-61
2022/02/25 00:58:17;;;;;;;44.33;31.20;;;;;;;2.55;100.00;100028.41;1752334;82;21031;-60
2022/02/25 01:00:44;;;;;;;;;;;;;;;2.49;100.00;100026.58;1755341;82;21047;-60
2022/02/25 01:03:10;;;;;;;43.48;30.25;;;;;;;2.51;100.00;100017.81;1752197;82;20091;-60
2022/02/25 01:05:37;;;;;;;43.33;31.45;;;;;;;2.55;100.00;100020.90;1751940;82;20979;-60
2022/02/25 01:08:05;;;;;;;41.13;30.50;;;;;;;2.54;100.00;100018.72;1752275;82;21047;-60
2022/02/25 01:10:33;;;;;;;46.23;31.85;;;;;;;2.49;100.00;100015.33;1752747;82;21011;-60
2022/02/25 01:12:59;;;;;;;46.55;32.15;;;;;;;2.47;100.00;100011.20;1749803;82;21030;-59
2022/02/25 01:15:27;;;;;;;40.70;29.00;;;;;;;2.49;100.00;100013.15;1746291;82;20983;-60
2022/02/25 01:17:53;;;;;;;39.92;29.25;;;;;;;2.52;100.00;99997.94;1752263;82;21075;-60
2022/02/25 01:20:20;;;;;;;43.05;30.92;;;;;;;2.51;100.00;99997.66;1741677;82;21039;-60
2022/02/25 01:22:46;;;;;;;40.55;29.52;;;;;;;2.49;100.00;99997.86;1722493;83;21501;-60
2022/02/25 01:25:14;;;;;;;41.08;29.70;;;;;;;2.49;100.00;99993.00;1724463;82;21574;-60
2022/02/25 01:27:42;;;;;;;42.93;29.95;;;;;;;2.53;100.00;99993.39;1752203;82;21553;-60
2022/02/25 01:30:10;;;;;;;42.00;29.90;;;;;;;2.57;100.00;99996.80;1750199;82;21555;-60
2022/02/25 01:32:38;;;;;;;41.68;31.00;;;;;;;2.55;100.00;99992.13;1748172;82;21026;-60
2022/02/25 01:35:05;;;;;;;44.83;30.85;;;;;;;2.49;100.00;99987.63;1736931;82;21027;-60
2022/02/25 01:37:32;;;;;;;40.80;29.15;;;;;;;2.47;100.00;99989.20;1724847;82;21113;-60
2022/02/25 01:39:58;;;;;;;37.33;27.70;;;;;;;2.51;100.00;99986.36;1752536;82;21022;-60
2022/02/25 01:42:25;;;;;;;;;;;;;;;2.51;100.00;99982.88;1744524;82;21020;-60
2022/02/25 01:44:51;;;;;;;41.40;29.55;;;;;;;2.44;100.00;99977.50;1738272;82;20148;-60
2022/02/25 01:47:18;;;;;;;39.60;29.55;;;;;;;2.36;100.00;99976.42;1738449;82;21043;-60
2022/02/25 01:49:44;;;;;;;39.05;29.27;;;;;;;2.42;100.00;99974.22;1737371;82;21106;-60
2022/02/25 01:52:15;;;;;;;40.40;30.57;;;;;;;2.45;100.00;99975.12;1738472;82;21047;-59
2022/02/25 01:54:46;;;;;;;43.13;29.82;;;;;;;2.42;100.00;99966.16;1738480;82;21497;-59
2022/02/25 01:57:15;;;;;;;40.08;29.95;;;;;;;2.39;100.00;99963.07;1717492;82;21593;-59
2022/02/25 01:59:41;;;;;;;43.58;29.77;;;;;;;2.44;100.00;99952.52;1708851;84;21020;-59
2022/02/25 02:02:08;;;;;;;44.75;31.40;;;;;;;2.48;100.00;99962.61;1709129;83;21003;-60
2022/02/25 02:04:35;;;;;;;42.08;30.65;;;;;;;2.48;100.00;99957.23;1709800;82;21098;-59
2022/02/25 02:07:02;;;;;;;46.88;32.73;;;;;;;2.43;100.00;99962.44;1709418;84;21510;-59
2022/02/25 02:09:28;;;;;;;48.05;33.63;;;;;;;2.39;100.00;99955.84;1709382;84;21557;-60
2022/02/25 02:11:55;;;;;;;48.63;34.78;;;;;;;2.42;100.00;99958.09;1709578;82;21493;-60
2022/02/25 02:14:24;;;;;;;;;;;;;;;2.45;100.00;99956.32;1729960;82;21569;-59
2022/02/25 02:16:52;;;;;;;48.63;33.23;;;;;;;2.45;100.00;99960.35;1738596;81;20127;-60
2022/02/25 02:19:19;;;;;;;45.38;30.45;;;;;;;2.33;100.00;99955.87;1738618;82;21035;-60
2022/02/25 02:21:50;;;;;;;46.23;31.02;;;;;;;2.34;100.00;99954.30;1711455;82;21012;-60
2022/02/25 02:24:17;;;;;;;43.68;31.25;;;;;;;2.38;100.00;99953.36;1708960;84;21102;-60
2022/02/25 02:26:44;;;;;;;44.18;31.33;;;;;;;2.40;100.00;99955.33;1709700;82;21522;-59
2022/02/25 02:29:11;;;;;;;;;;;;;;;2.38;100.00;99956.04;1711488;83;21548;-60
2022/02/25 02:31:37;;;;;;;43.63;29.27;;;;;;;2.35;100.00;99953.27;1709129;83;20144;-60
2022/02/25 02:34:04;;;;;;;41.90;29.98;;;;;;;2.37;100.00;99950.38;1730776;82;21055;-60
2022/02/25 02:36:31;;;;;;;45.92;30.82;;;;;;;2.39;100.00;99951.81;1737536;82;21561;-60
2022/02/25 02:38:57;;;;;;;42.78;30.88;;;;;;;2.42;100.00;99951.89;1738484;82;21079;-60
2022/02/25 02:41:24;;;;;;;42.08;30.23;;;;;;;2.37;100.00;99950.38;1736940;82;21031;-60
2022/02/25 02:43:50;;;;;;;;;;;;;;;2.37;100.00;99948.50;1754532;82;21060;-60
2022/02/25 02:46:17;;;;;;;40.20;28.80;;;;;;;2.42;100.00;99945.17;1752558;82;20542;-61
2022/02/25 02:48:43;;;;;;;41.88;30.05;;;;;;;2.41;100.00;99940.31;1725053;82;22149;-60
2022/02/25 02:51:10;;;;;;;43.33;30.20;;;;;;;2.39;100.00;99941.58;1732908;82;21075;-59
2022/02/25 02:53:37;;;;;;;;;;;;;;;2.33;100.00;99945.95;1725024;83;21059;-60
2022/02/25 02:56:04;;;;;;;40.40;28.70;;;;;;;2.32;100.00;99951.02;1722618;83;20137;-61
2022/02/25 02:58:31;;;;;;;40.15;28.70;;;;;;;2.32;100.00;99943.47;1745747;82;21114;-60
2022/02/25 03:00:57;;;;;;;42.43;30.55;;;;;;;2.37;100.00;99941.78;1752270;82;21030;-61
2022/02/25 03:03:24;;;;;;;39.00;28.50;;;;;;;2.36;100.00;99948.21;1752449;82;21079;-61
2022/02/25 03:05:51;;;;;;;44.85;30.52;;;;;;;2.31;100.00;99935.92;1744923;82;21035;-59
2022/02/25 03:08:19;;;;;;;38.25;27.80;;;;;;;2.34;100.00;99942.72;1722438;83;21055;-58
2022/02/25 03:10:46;;;;;;;37.00;28.20;;;;;;;2.42;100.00;99938.45;1722727;83;21050;-58
2022/02/25 03:13:14;;;;;;;38.78;28.45;;;;;;;2.45;100.00;99938.86;1723008;82;21063;-59
2022/02/25 03:15:44;;;;;;;40.28;28.62;;;;;;;2.49;100.00;99937.91;1722935;83;20971;-59
2022/02/25 03:18:12;;;;;;;39.60;26.95;;;;;;;2.45;100.00;99935.34;1722611;83;21541;-59
2022/02/25 03:20:38;;;;;;;41.23;29.12;;;;;;;2.43;100.00;99934.23;1723414;82;20971;-59
2022/02/25 03:23:05;;;;;;;37.35;27.65;;;;;;;2.46;100.00;99932.45;1723388;82;21533;-59
2022/02/25 03:25:32;;;;;;;42.00;30.32;;;;;;;2.39;100.00;99918.73;1722791;83;21428;-59
2022/02/25 03:28:00;;;;;;;41.65;27.77;;;;;;;2.42;100.00;99932.57;1722915;82;21039;-59
2022/02/25 03:30:26;;;;;;;42.35;28.50;;;;;;;2.36;100.00;99926.72;1722431;83;21066;-59
2022/02/25 03:32:54;;;;;;;37.20;27.00;;;;;;;2.32;100.00;99917.95;1728554;82;21067;-58
2022/02/25 03:35:20;;;;;;;42.45;30.85;;;;;;;2.41;100.00;99917.48;1722566;83;21574;-59
2022/02/25 03:37:48;;;;;;;42.40;30.40;;;;;;;2.34;100.00;99911.31;1722526;83;21124;-58
2022/02/25 03:40:15;;;;;;;38.42;28.65;;;;;;;2.32;100.00;99917.95;1722338;83;21522;-59
2022/02/25 03:42:42;;;;;;;39.08;29.10;;;;;;;2.37;100.00;99912.22;1744967;82;21086;-59
2022/02/25 03:45:10;;;;;;;45.48;32.15;;;;;;;2.35;100.00;99916.17;1752239;82;21035;-59
2022/02/25 03:47:36;;;;;;;42.85;29.52;;;;;;;2.30;100.00;99912.78;1752336;82;21035;-59
2022/02/25 03:50:04;;;;;;;42.00;29.32;;;;;;;2.27;100.00;99915.89;1752364;82;21027;-59
2022/02/25 03:52:31;;;;;;;36.70;26.80;;;;;;;2.30;100.00;99905.27;1750154;82;21058;-59
2022/02/25 03:54:57;;;;;;;;;;;;;;;2.35;100.00;99910.80;1755118;82;21057;-59
2022/02/25 03:57:24;;;;;;;42.90;28.98;;;;;;;2.34;100.00;99897.05;1724052;82;20130;-59
2022/02/25 03:59:50;;;;;;;39.55;27.22;;;;;;;2.19;100.00;99902.73;1752777;82;20987;-60
2022/02/25 04:02:17;;;;;;;38.63;27.42;;;;;;;2.18;100.00;99906.95;1752148;82;21062;-59
2022/02/25 04:04:44;;;;;;;38.13;26.05;;;;;;;2.23;100.00;99899.89;1752178;82;21130;-60
2022/02/25 04:07:10;;;;;;;37.38;26.93;;;;;;;2.20;100.00;99894.95;1752542;82;21109;-59
2022/02/25 04:09:38;;;;;;;39.33;27.37;;;;;;;2.14;100.00;99899.02;1752647;82;21039;-59
2022/02/25 04:12:06;;;;;;;38.90;28.30;;;;;;;2.15;100.00;99892.62;1734312;82;21023;-59
2022/02/25 04:14:33;;;;;;;38.08;27.48;;;;;;;2.23;100.00;99894.52;1722702;83;20999;-59
2022/02/25 04:16:59;;;;;;;38.65;27.50;;;;;;;2.21;100.00;99885.88;1727134;82;21019;-58
2022/02/25 04:19:26;;;;;;;37.10;26.45;;;;;;;2.15;100.00;99889.42;1738075;81;21098;-59
2022/02/25 04:21:52;;;;;;;35.25;26.75;;;;;;;2.19;100.00;99889.30;1731950;82;20955;-59
2022/02/25 04:24:19;;;;;;;37.30;27.30;;;;;;;2.25;100.00;99885.75;1696781;83;21502;-58
2022/02/25 04:26:46;;;;;;;40.90;29.12;;;;;;;2.23;100.00;99880.30;1733950;82;21490;-60
2022/02/25 04:29:13;;;;;;;39.35;27.05;;;;;;;2.18;100.00;99878.76;1752555;82;21577;-59
2022/02/25 04:31:39;;;;;;;38.50;27.77;;;;;;;2.17;100.00;99876.59;1750208;82;21011;-59
2022/02/25 04:34:06;;;;;;;38.48;27.85;;;;;;;2.20;100.00;99876.67;1752203;82;21047;-58
2022/02/25 04:36:36;;;;;;;44.60;30.02;;;;;;;2.19;100.00;99880.41;1752229;82;21031;-59
2022/02/25 04:39:05;;;;;;;42.23;28.38;;;;;;;2.11;100.00;99877.97;1752115;82;21583;-58
2022/02/25 04:41:32;;;;;;;39.03;27.35;;;;;;;2.07;100.00;99874.05;1727340;82;21018;-58
2022/02/25 04:43:59;;;;;;;37.15;25.90;;;;;;;2.06;100.00;99867.85;1710569;83;21098;-58
2022/02/25 04:46:26;;;;;;;39.27;27.17;;;;;;;2.05;100.00;99868.91;1709026;84;21118;-59
2022/02/25 04:48:54;;;;;;;38.85;26.57;;;;;;;2.03;100.00;99864.26;1708696;84;21561;-59
2022/02/25 04:51:21;;;;;;;37.13;25.08;;;;;;;1.95;100.00;99876.06;1724932;82;21048;-60
2022/02/25 04:53:49;;;;;;;37.42;25.20;;;;;;;1.92;100.00;99877.83;1738254;82;21072;-59
2022/02/25 04:56:16;;;;;;;38.17;26.25;;;;;;;1.95;100.00;99877.40;1723764;82;21004;-59
2022/02/25 04:58:44;;;;;;;35.43;24.45;;;;;;;1.95;100.00;99880.09;1708695;84;21072;-60
2022/02/25 05:01:10;;;;;;;34.35;24.55;;;;;;;1.88;100.00;99886.00;1715097;82;21039;-60
2022/02/25 05:03:37;;;;;;;36.65;23.90;;;;;;;1.89;100.00;99884.14;1719589;82;21130;-60
2022/02/25 05:06:03;;;;;;;36.30;24.92;;;;;;;1.97;100.00;99890.62;1688900;84;20992;-60
2022/02/25 05:08:30;;;;;;;;;;;;;;;1.93;100.00;99882.69;1711444;84;21130;-60
2022/02/25 05:10:56;;;;;;;37.15;24.25;;;;;;;1.87;100.00;99884.38;1709326;82;20128;-60
2022/02/25 05:13:24;;;;;;;36.10;24.43;;;;;;;1.88;100.00;99882.48;1708811;84;21142;-60
2022/02/25 05:21:21;;;;;;;38.13;25.25;;;;;;;1.88;100.00;99874.43;1715073;82;21023;-60
2022/02/25 05:23:47;;;;;;;34.63;23.70;;;;;;;1.89;100.00;99877.43;1688626;84;21094;-60
2022/02/25 05:26:14;;;;;;;37.73;25.35;;;;;;;1.95;100.00;99875.23;1709403;82;21107;-61
2022/02/25 05:28:40;;;;;;;33.75;24.47;;;;;;;1.97;100.00;99867.80;1725467;82;21090;-60
2022/02/25 05:31:07;;;;;;;;;;;;;;;1.93;100.00;99870.60;1733617;82;21078;-60
2022/02/25 05:33:33;;;;;;;33.00;22.05;;;;;;;1.91;100.00;99865.98;1737258;82;20107;-60
2022/02/25 05:36:00;;;;;;;36.40;23.30;;;;;;;1.93;100.00;99863.89;1734801;82;21115;-60
2022/02/25 05:38:26;;;;;;;32.17;22.07;;;;;;;1.95;100.00;99854.58;1709076;83;21067;-59
2022/02/25 05:40:54;;;;;;;30.48;21.40;;;;;;;1.91;100.00;99849.88;1721069;82;21012;-60
2022/02/25 05:43:22;;;;;;;35.70;21.17;;;;;;;1.86;100.00;99850.50;1744574;81;21090;-59
2022/02/25 05:45:48;;;;;;;28.70;20.90;;;;;;;1.89;100.00;99854.09;1752356;82;21015;-60
2022/02/25 05:48:14;;;;;;;29.02;20.55;;;;;;;1.93;100.00;99853.16;1752325;82;21083;-60
2022/02/25 05:50:41;;;;;;;;;;;;;;;1.90;100.00;99850.90;1752672;82;21024;-60
2022/02/25 05:53:08;;;;;;;25.88;18.95;;;;;;;1.86;100.00;99858.55;1752051;82;20360;-59
2022/02/25 05:57:38;;;;;;;29.15;21.02;;;;;;;1.98;100.00;99847.98;1818384;79;22870;-59
2022/02/25 06:00:08;;;;;;;31.07;22.20;;;;;;;1.89;100.00;99864.84;1791820;80;21027;-60
2022/02/25 06:02:37;;;;;;;30.02;20.97;;;;;;;1.89;100.00;99860.81;1791262;80;21576;-59
2022/02/25 06:05:04;;;;;;;;;;;;;;;1.99;100.00;99861.17;1794875;78;21091;-59
2022/02/25 06:07:30;;;;;;;30.95;21.15;;;;;;;2.11;100.00;99866.70;1791824;80;20108;-60
2022/02/25 06:09:57;;;;;;;31.50;23.15;;;;;;;2.14;100.00;99864.10;1791916;80;21022;-59
2022/02/25 06:12:23;;;;;;;33.78;23.87;;;;;;;2.14;100.00;99864.10;1820298;78;21027;-59
2022/02/25 06:14:51;;;;;;;32.58;23.05;;;;;;;2.25;100.00;99866.13;1826925;78;21038;-59
2022/02/25 06:17:18;;;;;;;31.73;22.77;;;;;;;2.41;100.00;99873.14;1827216;78;21011;-59
2022/02/25 06:19:44;;;;;;;29.60;20.60;;;;;;;2.53;100.00;99869.27;1825855;78;20999;-59
2022/02/25 06:22:11;;;;;;;;;;;;;;;2.55;100.00;99864.48;1829794;78;21066;-59
2022/02/25 06:24:37;;;;;;;28.95;20.90;;;;;;;2.57;100.00;99865.63;1766431;78;20134;-60
2022/02/25 06:27:04;;;;;;;27.48;19.75;;;;;;;2.67;100.00;99872.16;1804455;78;21493;-59
2022/02/25 06:29:30;;;;;;;26.20;18.00;;;;;;;2.75;100.00;99865.19;1827396;78;21023;-60
2022/02/25 06:31:56;;;;;;;26.42;19.20;;;;;;;2.75;100.00;99863.84;1814861;78;21069;-59
2022/02/25 06:34:23;;;;;;;23.67;16.77;;;;;;;2.70;100.00;99858.80;1764738;80;21035;-59
2022/02/25 06:36:49;;;;;;;23.80;17.60;;;;;;;2.75;100.00;99853.09;1731111;81;21028;-59
2022/02/25 06:39:16;;;;;;;22.87;16.07;;;;;;;2.86;100.00;99859.62;1760343;81;21108;-59
2022/02/25 06:41:42;;;;;;;20.45;14.68;;;;;;;2.86;100.00;99855.59;1770327;78;21176;-60
2022/02/25 06:44:09;;;;;;;22.20;15.15;;;;;;;2.86;100.00;99850.22;1776155;81;21146;-60
2022/02/25 06:46:35;;;;;;;21.07;15.30;;;;;;;2.90;100.00;99845.54;1776422;81;21098;-59
2022/02/25 06:49:03;;;;;;;23.22;16.30;;;;;;;2.90;100.00;99833.44;1776118;81;21114;-59
2022/02/25 06:51:30;;;;;;;30.25;20.20;;;;;;;3.08;100.00;99852.00;1818059;78;21026;-59
2022/02/25 06:53:57;;;;;;;29.40;19.37;;;;;;;3.12;100.00;99855.36;1827331;78;21081;-60
2022/02/25 06:56:24;;;;;;;29.80;18.52;;;;;;;3.14;100.00;99857.33;1814626;78;21040;-59
2022/02/25 06:58:50;;;;;;;27.52;18.10;;;;;;;3.23;100.00;99850.60;1778208;81;21528;-60
2022/02/25 07:01:17;;;;;;;18.10;13.72;;;;;;;3.39;100.00;99851.91;1778174;81;21096;-60
2022/02/25 07:03:44;;;;;;;20.48;13.90;;;;;;;3.45;100.00;99849.67;1777965;81;21083;-59
2022/02/25 07:06:10;;;;;;;18.70;13.88;;;;;;;3.46;100.00;99844.08;1767483;79;21039;-60
2022/02/25 07:08:37;;;;;;;;;;;;;;;3.42;100.00;99844.22;1764989;81;21115;-59
2022/02/25 07:11:04;;;;;;;18.60;13.18;;;;;;;3.41;100.00;99842.56;1743151;81;20447;-59
2022/02/25 07:13:30;;;;;;;16.67;12.20;;;;;;;3.41;100.00;99835.84;1805526;79;21637;-59
2022/02/25 07:15:58;;;;;;;17.50;12.70;;;;;;;3.62;100.00;99838.61;1815195;79;21035;-59
2022/02/25 07:18:24;;;;;;;18.85;13.95;;;;;;;3.74;100.00;99834.66;1815175;79;21604;-59
2022/02/25 07:20:51;;;;;;;;;;;;;;;3.72;100.00;99824.64;1747674;82;21522;-60
2022/02/25 07:23:18;;;;;;;17.75;12.80;;;;;;;3.79;100.00;99832.13;1749542;82;20135;-59
2022/02/25 07:25:44;;;;;;;18.80;14.47;;;;;;;3.83;100.00;99827.90;1815364;79;21086;-59
2022/02/25 07:28:11;;;;;;;18.30;12.68;;;;;;;3.91;100.00;99824.39;1742886;82;21099;-59
2022/02/25 07:30:37;;;;;;;13.22;10.20;;;;;;;4.01;100.00;99823.33;1746203;82;21035;-59
2022/02/25 07:33:04;;;;;;;14.50;10.68;;;;;;;4.31;100.00;99817.13;1730669;82;21084;-59
2022/02/25 07:35:30;;;;;;;12.15;8.68;;;;;;;4.58;100.00;99817.02;1728791;81;21644;-60
2022/02/25 07:37:57;;;;;;;11.12;7.50;;;;;;;4.76;100.00;99818.82;1763387;81;21082;-59
2022/02/25 07:40:24;;;;;;;;;;;;;;;4.97;100.00;99820.44;1766441;81;20999;-59
2022/02/25 07:42:51;;;;;;;7.85;5.37;;;;;;;5.10;100.00;99809.14;1750178;81;20110;-60
2022/02/25 07:45:18;;;;;;;5.83;3.62;;;;;;;5.10;100.00;99811.84;1740387;81;21019;-59
2022/02/25 07:47:45;;;;;;;5.20;3.80;;;;;;;5.17;100.00;99807.97;1691858;82;21059;-60
2022/02/25 07:50:13;;;;;;;6.37;3.95;;;;;;;5.23;100.00;99812.42;1763604;79;21008;-59
2022/02/25 07:52:40;;;;;;;4.62;3.02;;;;;;;5.29;100.00;99815.52;1780035;79;21047;-60
2022/02/25 07:55:08;;;;;;;;;;;;;;;5.24;100.00;99816.77;1749127;82;21393;-60
2022/02/25 07:57:37;;;;;;;3.42;2.42;;;;;;;5.09;100.00;99812.36;1739156;81;20360;-59
2022/02/25 08:00:06;;;;;;;3.67;2.58;;;;;;;4.97;100.00;99813.69;1756976;81;21027;-60
2022/02/25 08:02:35;;;;;;;4.83;3.10;;;;;;;4.90;100.00;99809.45;1754185;81;21517;-59
2022/02/25 08:05:02;;;;;;;4.83;3.35;;;;;;;4.74;100.00;99796.67;1756987;81;21553;-60
2022/02/25 08:07:29;;;;;;;5.75;3.70;;;;;;;4.71;100.00;99799.83;1756957;81;21027;-60
2022/02/25 08:09:56;;;;;;;7.50;4.58;;;;;;;4.70;100.00;99802.23;1756763;81;21031;-60
2022/02/25 08:12:23;;;;;;;8.25;5.58;;;;;;;4.72;100.00;99795.54;1738803;81;21074;-60
2022/02/25 08:14:53;;;;;;;10.03;7.42;;;;;;;4.75;100.00;99788.85;1741637;81;21058;-60
2022/02/25 08:17:21;;;;;;;10.90;8.70;;;;;;;4.83;100.00;99790.69;1727080;83;21070;-59
2022/02/25 08:19:48;;;;;;;9.75;6.60;;;;;;;4.91;100.00;99781.44;1727251;83;21549;-59
2022/02/25 08:22:14;;;;;;;10.78;7.70;;;;;;;4.93;100.00;99784.19;1727973;81;21576;-59
2022/02/25 08:24:41;;;;;;;7.72;5.80;;;;;;;4.91;100.00;99777.39;1727113;83;21537;-59
2022/02/25 08:27:08;;;;;;;8.83;6.08;;;;;;;4.93;100.00;99774.74;1732788;81;21616;-59
2022/02/25 08:29:36;;;;;;;7.25;5.00;;;;;;;5.00;100.00;99780.02;1756726;81;21043;-59
2022/02/25 08:32:03;;;;;;;7.12;5.20;;;;;;;5.12;100.00;99783.55;1756940;81;21065;-59
2022/02/25 08:34:30;;;;;;;7.15;5.17;;;;;;;5.15;100.00;99784.42;1730917;81;21082;-59
2022/02/25 08:36:57;;;;;;;10.63;8.75;;;;;;;5.20;100.00;99780.50;1746621;81;21086;-59
2022/02/25 08:39:23;;;;;;;7.92;5.40;;;;;;;5.17;100.00;99775.59;1757135;81;21042;-61
2022/02/25 08:41:50;;;;;;;11.15;8.93;;;;;;;5.08;100.00;99774.28;1754235;81;21058;-61
2022/02/25 08:44:16;;;;;;;7.92;6.30;;;;;;;4.96;100.00;99774.27;1757373;81;21046;-61
2022/02/25 08:46:45;;;;;;;8.10;5.67;;;;;;;4.94;100.00;99772.34;1757654;81;21063;-60
2022/02/25 08:49:11;;;;;;;7.03;5.67;;;;;;;4.95;100.00;99767.26;1755104;81;21498;-61
2022/02/25 08:51:37;;;;;;;8.95;6.42;;;;;;;5.00;100.00;99766.01;1757586;81;21533;-60
2022/02/25 08:54:04;;;;;;;7.87;5.83;;;;;;;5.03;100.00;99762.56;1757184;81;21035;-61
2022/02/25 08:56:30;;;;;;;8.30;5.60;;;;;;;4.99;100.00;99758.17;1760817;80;21035;-60
2022/02/25 08:58:57;;;;;;;8.60;6.70;;;;;;;4.94;100.00;99759.38;1767446;80;20999;-61
2022/02/25 09:01:24;;;;;;;13.05;9.85;;;;;;;4.94;100.00;99753.98;1727591;82;21082;-60
2022/02/25 09:03:50;;;;;;;9.10;6.33;;;;;;;4.95;100.00;99743.50;1755048;82;21003;-60
2022/02/25 09:06:19;;;;;;;10.23;6.60;;;;;;;5.03;100.00;99742.33;1757063;80;21450;-60
2022/02/25 09:08:45;;;;;;;9.80;7.28;;;;;;;5.10;100.00;99740.33;1754846;81;21572;-60
2022/02/25 09:11:12;;;;;;;10.30;6.95;;;;;;;5.11;100.00;99740.08;1755998;80;21054;-60
2022/02/25 09:13:41;;;;;;;14.53;9.45;;;;;;;5.09;100.00;99740.03;1719179;83;21069;-60
2022/02/25 09:16:08;;;;;;;;;;;;;;;5.00;100.00;99743.59;1694401;85;21032;-61
2022/02/25 09:18:34;;;;;;;8.10;5.83;;;;;;;4.90;100.00;99739.33;1690502;85;20095;-61
2022/02/25 09:21:01;;;;;;;8.33;5.67;;;;;;;4.83;100.00;99736.75;1693020;83;21032;-61
2022/02/25 09:23:27;;;;;;;9.30;6.30;;;;;;;4.86;100.00;99736.80;1691693;85;21162;-60
2022/02/25 09:25:54;;;;;;;9.78;6.65;;;;;;;4.93;100.00;99737.50;1689158;85;21040;-60
2022/02/25 09:28:24;;;;;;;13.05;8.08;;;;;;;4.98;100.00;99733.58;1728624;83;21149;-60
2022/02/25 09:30:52;;;;;;;10.20;6.72;;;;;;;4.93;100.00;99730.75;1746416;82;21542;-61
2022/02/25 09:33:19;;;;;;;8.03;5.45;;;;;;;4.92;100.00;99731.28;1728614;82;21074;-59
2022/02/25 09:35:46;;;;;;;8.95;6.20;;;;;;;4.95;100.00;99725.97;1705720;83;21121;-59
2022/02/25 09:38:12;;;;;;;9.53;6.30;;;;;;;4.94;100.00;99723.80;1688799;85;21180;-58
2022/02/25 09:40:39;;;;;;;9.35;6.42;;;;;;;4.99;100.00;99724.44;1703945;84;21113;-58
2022/02/25 09:43:05;;;;;;;9.78;7.10;;;;;;;5.04;100.00;99728.59;1706931;83;21137;-58
2022/02/25 09:45:33;;;;;;;9.50;7.25;;;;;;;5.13;100.00;99721.79;1720625;83;21049;-59
2022/02/25 09:48:01;;;;;;;10.40;6.60;;;;;;;5.22;100.00;99715.48;1748877;82;21527;-59
2022/02/25 09:50:28;;;;;;;10.13;6.65;;;;;;;5.27;100.00;99713.73;1747103;82;20981;-58
2022/02/25 09:52:55;;;;;;;9.48;6.08;;;;;;;5.34;100.00;99710.89;1748810;82;21039;-58
2022/02/25 09:55:30;;;;;;;12.07;7.42;;;;;;;5.38;100.00;99708.02;1749109;82;21052;-59
2022/02/25 10:06:08;;;;;;;7.58;5.22;;;;;;;5.72;100.00;99693.57;1818336;78;23154;-59
2022/02/25 10:08:35;;;;;;;8.13;5.77;;;;;;;5.84;100.00;99689.47;1812385;78;21030;-59
2022/02/25 10:11:03;;;;;;;8.50;5.80;;;;;;;5.89;100.00;99680.95;1827005;78;21057;-60
2022/02/25 10:13:31;;;;;;;9.00;6.10;;;;;;;6.04;100.00;99689.04;1805099;78;21070;-59
2022/02/25 10:16:01;;;;;;;9.40;5.72;;;;;;;6.15;100.00;99684.93;1794720;80;20975;-59
2022/02/25 10:18:33;;;;;;;7.72;5.75;;;;;;;6.31;100.00;99685.46;1794706;80;21572;-59
2022/02/25 10:21:09;;;;;;;7.33;5.10;;;;;;;6.36;100.00;99678.80;1766376;78;21081;-60
2022/02/25 10:23:40;;;;;;;9.98;6.70;;;;;;;6.25;100.00;99680.22;1763018;81;21074;-58
2022/02/25 10:26:17;;;;;;;8.38;5.83;;;;;;;6.22;100.00;99674.78;1768509;80;20972;-59
2022/02/25 10:28:47;;;;;;;7.17;5.17;;;;;;;6.33;100.00;99661.72;1776137;78;21659;-58
2022/02/25 10:31:35;;;;;;;6.70;5.22;;;;;;;6.62;100.00;99657.03;1785490;80;21837;-58
2022/02/25 10:34:07;;;;;;;;;;;;;;;6.72;100.00;99649.06;1785836;80;21539;-58
2022/02/25 10:36:47;;;;;;;6.85;5.20;;;;;;;6.54;100.00;99640.39;1783920;78;20438;-59
2022/02/25 10:39:26;;;;;;;7.40;5.53;;;;;;;6.45;100.00;99645.39;1788219;80;21059;-58
2022/02/25 10:42:18;;;;;;;7.65;5.45;;;;;;;6.42;100.00;99638.59;1793705;80;21498;-58
2022/02/25 10:44:59;;;;;;;9.15;5.62;;;;;;;6.54;100.00;99634.98;1769201;78;21074;-58
2022/02/25 10:47:31;;;;;;;6.42;4.85;;;;;;;6.48;100.00;99630.84;1768242;80;20987;-58
2022/02/25 10:56:51;;;;;;;7.97;5.30;;;;;;;6.26;100.00;99625.92;1799678;79;22986;-59
2022/02/25 10:59:18;;;;;;;7.75;5.42;;;;;;;6.13;100.00;99614.63;1749121;81;21963;-58
2022/02/25 11:01:44;;;;;;;;;;;;;;;6.21;100.00;99604.73;1753711;82;21643;-57
2022/02/25 11:04:14;;;;;;;6.60;4.37;;;;;;;6.27;100.00;99606.47;1750961;81;20145;-58
2022/02/25 11:06:41;;;;;;;6.87;4.60;;;;;;;6.30;100.00;99604.63;1750246;82;21102;-59
2022/02/25 11:09:08;;;;;;;7.00;4.25;;;;;;;6.39;100.00;99605.83;1751082;82;21060;-57
2022/02/25 11:11:35;;;;;;;7.75;5.15;;;;;;;6.60;100.00;99609.64;1729949;82;21101;-57
2022/02/25 11:14:04;;;;;;;7.53;4.97;;;;;;;6.77;100.00;99605.02;1739659;82;21051;-55
2022/02/25 11:16:32;;;;;;;6.17;4.37;;;;;;;6.95;100.00;99605.53;1751663;82;21616;-57
2022/02/25 11:18:58;;;;;;;5.75;4.28;;;;;;;7.20;100.00;99606.91;1734476;82;21058;-57
2022/02/25 11:21:25;;;;;;;;;;;;;;;7.25;100.00;99599.69;1673278;82;21014;-56
2022/02/25 11:23:52;;;;;;;6.97;4.83;;;;;;;7.27;99.00;99592.11;1737420;82;20102;-56
2022/02/25 11:26:21;;;;;;;5.87;4.65;;;;;;;7.19;100.00;99591.77;1736380;82;21030;-56
2022/02/25 11:36:49;;;;;;;7.75;5.50;;;;;;;7.33;98.38;99572.70;1880964;74;22796;-58
2022/02/25 11:39:30;;;;;;;6.92;4.95;;;;;;;7.18;96.45;99572.52;1875884;75;21022;-59
2022/02/25 11:42:04;;;;;;;7.05;4.92;;;;;;;6.85;97.05;99567.53;1851967;76;21565;-59
2022/02/25 11:44:35;;;;;;;8.73;5.12;;;;;;;6.68;100.00;99564.59;1836020;76;21050;-58
2022/02/25 11:46:59;;;;;;;7.08;5.25;;;;;;;6.72;100.00;99550.86;1844586;76;20995;-57
2022/02/25 11:49:26;;;;;;;;;;;;;;;6.85;100.00;99555.35;1863659;76;20987;-57
2022/02/25 11:51:57;;;;;;;6.23;4.60;;;;;;;6.97;100.00;99556.58;1868779;76;20104;-58
2022/02/25 11:54:33;;;;;;;6.90;4.53;;;;;;;7.05;100.00;99560.17;1864782;76;21042;-58
2022/02/25 11:57:07;;;;;;;7.75;4.85;;;;;;;7.24;100.00;99553.37;1865575;76;20969;-60
2022/02/25 11:59:39;;;;;;;7.72;5.05;;;;;;;7.33;100.00;99557.80;1851585;76;21549;-59